メインページ
METAR-TAF:

METAR-TAF

空港 :

Edson, アルバータ州, カナダ

緯度: 53-35N, 経度: 116-28W, 海抜: 921m

現時点の気象観測

当レポートは58分前の10:00(UTC)に作成
西の風 3kt、西から北/北西の間で変化する
気温 9°C
湿度 93%
気圧 1015 hPa
視程: 14.5km
晴天

METAR: CYET 051000Z AUTO 27003KT 260V340 9SM CLR 09/08 A2998 RMK SLP154

時間: 04:58 (10:58 UTC)


TAF: 見つかりません

4,000以上の空港の気象観測と天気予報(METAR報とTAF報)

利用可能な観測所は地図上に黄色い丸と赤い丸で示す。

丸の上にカーソルを重ねると観測所名を参照できる。

次にクリックすると気象観測と天気予報を参照できる。

マップの切り替え:黒色「×」印の緑ボタンをクリックして拡大、「-」印の緑ボタンをクリックして縮小、緑色の三角印をクリックして隣りの地図に切り替え


METAR-TAF: